createdAt,value
2018-09-25T18:32:31.283Z,1026.22
2018-09-25T18:33:46.120Z,1026.22
2018-09-25T18:35:00.954Z,1026.22
2018-09-25T18:36:15.422Z,1026.25
2018-09-25T18:37:30.966Z,1026.27
2018-09-25T18:38:45.359Z,1026.28
2018-09-25T18:39:59.286Z,1026.28
2018-09-25T18:41:13.656Z,1026.32
2018-09-25T18:42:27.517Z,1026.31
2018-09-25T18:43:41.895Z,1026.32
2018-09-25T18:44:57.245Z,1026.33
2018-09-25T18:46:10.974Z,1026.33
2018-09-25T18:47:39.424Z,1026.36
2018-09-25T18:48:53.523Z,1026.42
2018-09-25T18:50:07.412Z,1026.39
2018-09-25T18:51:22.227Z,1026.41
2018-09-25T18:52:36.614Z,1026.42
2018-09-25T18:53:50.774Z,1026.44
2018-09-25T18:55:05.014Z,1026.4
2018-09-25T18:56:19.101Z,1026.44
2018-09-25T18:57:33.559Z,1026.37
2018-09-25T18:58:47.934Z,1026.4
2018-09-25T19:00:02.443Z,1026.38
2018-09-25T19:01:16.165Z,1026.39
2018-09-25T19:02:30.163Z,1026.4
2018-09-25T19:03:44.288Z,1026.38
2018-09-25T19:04:58.239Z,1026.41
2018-09-25T19:06:13.146Z,1026.43
2018-09-25T19:07:27.228Z,1026.46
2018-09-25T19:08:41.178Z,1026.49
2018-09-25T19:09:55.260Z,1026.52
2018-09-25T19:11:08.854Z,1026.56
2018-09-25T19:12:22.961Z,1026.56
2018-09-25T19:13:37.287Z,1026.52
2018-09-25T19:14:51.124Z,1026.53
2018-09-25T19:16:06.389Z,1026.54
2018-09-25T19:17:20.692Z,1026.58
2018-09-25T19:18:34.626Z,1026.52
2018-09-25T19:19:48.690Z,1026.54
2018-09-25T19:21:02.555Z,1026.57
2018-09-25T19:22:16.923Z,1026.6
2018-09-25T19:23:30.956Z,1026.55
2018-09-25T19:24:45.249Z,1026.63
2018-09-25T19:25:59.820Z,1026.63
2018-09-25T19:27:13.935Z,1026.6
2018-09-25T19:28:28.186Z,1026.61
2018-09-25T19:29:42.359Z,1026.62
2018-09-25T19:30:56.545Z,1026.67
2018-09-25T19:32:10.491Z,1026.68
2018-09-25T19:33:24.927Z,1026.7
2018-09-25T19:34:39.294Z,1026.76
2018-09-25T19:35:53.117Z,1026.7
2018-09-25T19:37:07.749Z,1026.74
2018-09-25T19:38:21.789Z,1026.73
2018-09-25T19:39:35.869Z,1026.71
2018-09-25T19:40:49.710Z,1026.71
2018-09-25T19:42:03.559Z,1026.74
2018-09-25T19:43:17.390Z,1026.65
2018-09-25T19:44:31.313Z,1026.6
2018-09-25T19:45:45.972Z,1026.55
2018-09-25T19:47:00.553Z,1026.51
2018-09-25T19:48:14.712Z,1026.46
2018-09-25T19:49:28.621Z,1026.41
2018-09-25T19:50:42.818Z,1026.41
2018-09-25T19:51:57.096Z,1026.36
2018-09-25T19:53:11.782Z,1026.38
2018-09-25T19:54:26.170Z,1026.39
2018-09-25T19:55:40.241Z,1026.38
2018-09-25T19:56:54.098Z,1026.37
2018-09-25T19:58:08.476Z,1026.42
2018-09-25T19:59:23.174Z,1026.44
2018-09-25T20:00:37.394Z,1026.41
2018-09-25T20:01:51.285Z,1026.41
2018-09-25T20:03:05.659Z,1026.39
2018-09-25T20:04:20.132Z,1026.35
2018-09-25T20:05:34.502Z,1026.35
2018-09-25T20:06:48.829Z,1026.43
2018-09-25T20:08:02.942Z,1026.4
2018-09-25T20:09:16.832Z,1026.42
2018-09-25T20:10:31.182Z,1026.38
2018-09-25T20:11:45.954Z,1026.41
2018-09-25T20:12:59.748Z,1026.35
2018-09-25T20:14:14.063Z,1026.35
2018-09-25T20:15:28.061Z,1026.31
2018-09-25T20:16:41.765Z,1026.36
2018-09-25T20:17:56.394Z,1026.32
2018-09-25T20:19:10.111Z,1026.3
2018-09-25T20:20:25.264Z,1026.36
2018-09-25T20:21:39.422Z,1026.34
2018-09-25T20:22:53.786Z,1026.4
2018-09-25T20:24:07.489Z,1026.42
2018-09-25T20:25:21.374Z,1026.41
2018-09-25T20:26:35.696Z,1026.37
2018-09-25T20:27:49.927Z,1026.33
2018-09-25T20:29:03.817Z,1026.39
2018-09-25T20:30:18.448Z,1026.37
2018-09-25T20:31:32.694Z,1026.34
2018-09-25T20:32:46.587Z,1026.33
2018-09-25T20:34:00.427Z,1026.34
2018-09-25T20:35:14.298Z,1026.36
2018-09-25T20:36:28.614Z,1026.3
2018-09-25T20:37:42.424Z,1026.3
2018-09-25T20:38:55.851Z,1026.29
2018-09-25T20:40:12.186Z,1026.29
2018-09-25T20:41:27.680Z,1026.32
2018-09-25T20:42:44.199Z,1026.37
2018-09-25T20:43:58.742Z,1026.41
2018-09-25T20:45:15.126Z,1026.44
2018-09-25T20:46:30.428Z,1026.43
2018-09-25T20:47:46.590Z,1026.4
2018-09-25T20:49:02.390Z,1026.38
2018-09-25T20:50:19.173Z,1026.36
2018-09-25T20:51:32.990Z,1026.37
2018-09-25T20:52:47.265Z,1026.36
2018-09-25T20:54:01.919Z,1026.37
2018-09-25T20:55:16.222Z,1026.4
2018-09-25T20:56:30.034Z,1026.34
2018-09-25T20:57:44.098Z,1026.32
2018-09-25T20:58:58.645Z,1026.33
2018-09-25T21:00:12.253Z,1026.31
2018-09-25T21:01:26.627Z,1026.28
2018-09-25T21:02:40.985Z,1026.28
2018-09-25T21:03:55.324Z,1026.32
2018-09-25T21:05:09.187Z,1026.32
2018-09-25T21:06:23.252Z,1026.28
2018-09-25T21:07:37.099Z,1026.31
2018-09-25T21:08:50.735Z,1026.27
2018-09-25T21:10:04.615Z,1026.27
2018-09-25T21:11:18.466Z,1026.24
2018-09-25T21:12:32.604Z,1026.27
2018-09-25T21:13:47.469Z,1026.27
2018-09-25T21:15:01.909Z,1026.29
2018-09-25T21:16:16.134Z,1026.26
2018-09-25T21:17:30.211Z,1026.28
2018-09-25T21:18:44.740Z,1026.25
2018-09-25T21:19:59.050Z,1026.18
2018-09-25T21:21:13.212Z,1026.13
2018-09-25T21:22:27.217Z,1026.14
2018-09-25T21:23:41.043Z,1026.13
2018-09-25T21:24:55.571Z,1026.15
2018-09-25T21:26:10.100Z,1026.12
2018-09-25T21:27:24.225Z,1026.17
2018-09-25T21:28:39.067Z,1026.12
2018-09-25T21:29:53.931Z,1026.12
2018-09-25T21:31:08.196Z,1026.1
2018-09-25T21:32:22.804Z,1026.09
2018-09-25T21:33:37.113Z,1026
2018-09-25T21:34:51.451Z,1026.01
2018-09-25T21:36:05.515Z,1025.99
2018-09-25T21:37:19.641Z,1025.95
2018-09-25T21:38:33.953Z,1025.96
2018-09-25T21:39:48.313Z,1025.9
2018-09-25T21:41:02.211Z,1025.96
2018-09-25T21:42:16.273Z,1025.96
2018-09-25T21:43:30.077Z,1025.96
2018-09-25T21:44:44.376Z,1026
2018-09-25T21:45:58.833Z,1026.02
2018-09-25T21:47:12.710Z,1026.08
2018-09-25T21:48:26.801Z,1026.09
2018-09-25T21:49:40.670Z,1026.12
2018-09-25T21:50:55.582Z,1026.12
2018-09-25T21:52:11.428Z,1026.1
2018-09-25T21:53:25.147Z,1026.12
2018-09-25T21:54:39.196Z,1026.09
2018-09-25T21:55:53.245Z,1026.07
2018-09-25T21:57:07.734Z,1026.01
2018-09-25T21:58:22.875Z,1025.98
2018-09-25T21:59:37.404Z,1025.92
2018-09-25T22:00:51.479Z,1026
2018-09-25T22:02:05.392Z,1026.03
2018-09-25T22:03:20.136Z,1026.02
2018-09-25T22:04:33.829Z,1025.99
2018-09-25T22:06:02.557Z,1025.99
2018-09-25T22:07:16.816Z,1025.96
2018-09-25T22:08:31.369Z,1025.98
2018-09-25T22:09:45.423Z,1025.99
2018-09-25T22:10:59.023Z,1026.02
2018-09-25T22:12:13.279Z,1026.02
2018-09-25T22:13:27.338Z,1025.97
2018-09-25T22:14:41.666Z,1026.01
2018-09-25T22:15:55.284Z,1026.02
2018-09-25T22:17:09.584Z,1026.01
2018-09-25T22:18:23.737Z,1026.05
2018-09-25T22:19:37.305Z,1026.05
2018-09-25T22:20:51.609Z,1026.07
2018-09-25T22:22:05.465Z,1026.04
2018-09-25T22:23:19.612Z,1026.06
2018-09-25T22:24:33.523Z,1026.07
2018-09-25T22:25:48.031Z,1025.98
2018-09-25T22:27:02.543Z,1026
2018-09-25T22:28:16.404Z,1026
2018-09-25T22:29:30.896Z,1025.97
2018-09-25T22:30:45.357Z,1026
2018-09-25T22:31:59.641Z,1025.99
2018-09-25T22:33:14.156Z,1025.97
2018-09-25T22:34:28.439Z,1025.91
2018-09-25T22:35:42.513Z,1025.89
2018-09-25T22:36:56.817Z,1025.85
2018-09-25T22:38:11.017Z,1025.9
2018-09-25T22:39:25.572Z,1025.93
2018-09-25T22:40:39.445Z,1025.92
2018-09-25T22:41:53.276Z,1025.88
2018-09-25T22:43:06.840Z,1025.91
2018-09-25T22:44:21.248Z,1025.86
2018-09-25T22:45:35.349Z,1025.86
2018-09-25T22:46:49.144Z,1025.84
2018-09-25T22:48:03.383Z,1025.91
2018-09-25T22:49:16.971Z,1025.93
2018-09-25T22:50:31.243Z,1025.99
2018-09-25T22:51:45.793Z,1025.97
2018-09-25T22:52:59.814Z,1025.95
2018-09-25T22:54:14.108Z,1025.88
2018-09-25T22:55:27.865Z,1025.84
2018-09-25T22:56:41.705Z,1025.83
2018-09-25T22:57:56.063Z,1025.86
2018-09-25T22:59:10.326Z,1025.89
2018-09-25T23:00:24.391Z,1025.85
2018-09-25T23:01:38.185Z,1025.96
2018-09-25T23:02:52.112Z,1025.97
2018-09-25T23:04:06.700Z,1025.99
2018-09-25T23:05:20.499Z,1025.96
2018-09-25T23:06:34.549Z,1025.97
2018-09-25T23:07:48.387Z,1025.99
2018-09-25T23:09:01.748Z,1025.94
2018-09-25T23:10:16.058Z,1025.91
2018-09-25T23:11:29.980Z,1025.9
2018-09-25T23:12:43.779Z,1025.91
2018-09-25T23:13:57.571Z,1025.92
2018-09-25T23:15:11.170Z,1025.89
2018-09-25T23:16:25.203Z,1025.87
2018-09-25T23:17:39.483Z,1025.87
2018-09-25T23:18:53.124Z,1025.85
2018-09-25T23:20:07.181Z,1025.85
2018-09-25T23:21:21.275Z,1025.85
2018-09-25T23:22:35.620Z,1025.84
2018-09-25T23:23:49.210Z,1025.85
2018-09-25T23:25:03.730Z,1025.84
2018-09-25T23:26:18.373Z,1025.77
2018-09-25T23:27:32.929Z,1025.73
2018-09-25T23:28:47.258Z,1025.75
2018-09-25T23:30:00.662Z,1025.8
2018-09-25T23:31:14.783Z,1025.76
2018-09-25T23:32:28.810Z,1025.84
2018-09-25T23:33:43.018Z,1025.77
2018-09-25T23:34:57.791Z,1025.75
2018-09-25T23:36:11.596Z,1025.71
2018-09-25T23:37:25.394Z,1025.72
2018-09-25T23:38:39.662Z,1025.62
2018-09-25T23:39:53.711Z,1025.59
2018-09-25T23:41:07.068Z,1025.54
2018-09-25T23:42:20.859Z,1025.52
2018-09-25T23:43:35.276Z,1025.48
2018-09-25T23:44:49.610Z,1025.44
2018-09-25T23:46:03.388Z,1025.45
2018-09-25T23:47:17.802Z,1025.45
2018-09-25T23:48:31.362Z,1025.48
2018-09-25T23:49:45.417Z,1025.46
2018-09-25T23:50:59.944Z,1025.44
2018-09-25T23:52:13.531Z,1025.42
2018-09-25T23:53:27.759Z,1025.41
2018-09-25T23:54:41.886Z,1025.39
2018-09-25T23:55:56.196Z,1025.36
2018-09-25T23:57:10.513Z,1025.35
2018-09-25T23:58:24.227Z,1025.29
2018-09-25T23:59:38.526Z,1025.25
